LPFL/FLW METAR and TAF weather

Enter ICAO airport designator
Station Type Date Time Source
LPFL METAR 2021/01/26 18:00 UTC NOAA

LPFL 261800Z 18022G33KT 150V220 8000 -RA FEW008 SCT010 FEW012TCU 17/16 Q1002


Station Type Date Time Source
LPFL Decoded METAR 2021/01/26 18:00 UTC NOAA

Flores Acores , Portugal (LPFL) 39-27N 031-08W 29M
Jan 26, 2021 - 01:00 PM EST / 2021.01.26 1800 UTC
Wind: from the S (180 degrees) at 25 MPH (22 KT) gusting to 38 MPH (33 KT) (direction variable):0
Visibility: 4 mile(s):0
Sky conditions: partly cloudy
Weather: light rain; Towering cumulus clouds observed
Temperature: 62 F (17 C)
Dew Point: 60 F (16 C)
Relative Humidity: 93%
Pressure (altimeter): 29.59 in. Hg (1002 hPa)
ob: LPFL 261800Z 18022G33KT 150V220 8000 -RA FEW008 SCT010 FEW012TCU 17/16 Q1002
cycle: 18

Station Type Date Time Source
LPFL TAF UTC NOAA

Error!

Example: see airport list